Time;durP1;ratioP1;P1;durP2;ratioP2;P2;SDS_P1;SDS_P2;PMS_P1;PMS_P2;Temp;Humidity;BMP_temperature;BMP_pressure;BME280_temperature;BME280_humidity;BME280_pressure;Samples;Min_cycle;Max_cycle;Signal;HPM_P1;HPM_P2
2023/08/27 00:00:39;;;;;;;4.40;2.30;;;13.60;99.90;;;;;;4865036;29;20222;-85
2023/08/27 00:03:04;;;;;;;2.63;2.20;;;13.60;99.90;;;;;;4864762;29;20689;-85
2023/08/27 00:05:30;;;;;;;3.93;2.20;;;13.50;99.90;;;;;;4864769;29;20567;-84
2023/08/27 00:07:56;;;;;;;3.23;2.23;;;13.50;99.90;;;;;;4864763;29;20236;-84
2023/08/27 00:10:22;;;;;;;2.10;1.90;;;13.50;99.90;;;;;;4864338;29;20184;-84
2023/08/27 00:12:47;;;;;;;3.90;2.83;;;13.50;99.90;;;;;;4864457;29;20275;-85
2023/08/27 00:15:13;;;;;;;4.00;2.60;;;13.60;99.90;;;;;;4864463;29;20540;-84
2023/08/27 00:17:38;;;;;;;3.23;2.90;;;13.60;99.90;;;;;;4864650;29;20188;-84
2023/08/27 00:20:09;;;;;;;3.20;2.30;;;13.60;99.90;;;;;;4865109;29;20184;-85
2023/08/27 00:22:36;;;;;;;5.03;2.60;;;13.60;99.90;;;;;;4864473;29;20185;-84
2023/08/27 00:25:01;;;;;;;2.77;2.20;;;13.60;99.90;;;;;;4864367;29;20981;-84
2023/08/27 00:27:27;;;;;;;5.10;2.00;;;13.60;99.90;;;;;;4863840;29;20456;-84
2023/08/27 00:29:53;;;;;;;4.77;2.40;;;13.60;99.90;;;;;;4863199;29;20196;-85
2023/08/27 00:32:18;;;;;;;2.33;1.90;;;13.60;99.90;;;;;;4863955;29;20236;-84
2023/08/27 00:34:44;;;;;;;4.67;2.10;;;13.60;99.90;;;;;;4864105;29;20188;-85
2023/08/27 00:37:09;;;;;;;2.30;2.10;;;13.70;99.90;;;;;;4864311;29;20195;-84
2023/08/27 00:39:38;;;;;;;2.40;2.17;;;13.60;99.90;;;;;;4864228;29;20244;-84
2023/08/27 00:42:05;;;;;;;3.10;2.10;;;13.60;99.90;;;;;;4864130;29;20199;-84
2023/08/27 00:44:30;;;;;;;4.50;2.37;;;13.60;99.90;;;;;;4863771;29;20396;-84
2023/08/27 00:46:57;;;;;;;5.70;2.37;;;13.60;99.90;;;;;;4863831;29;20887;-84
2023/08/27 00:49:23;;;;;;;4.17;2.03;;;13.70;99.90;;;;;;4863630;29;20275;-84
2023/08/27 00:51:50;;;;;;;3.43;2.10;;;13.60;99.90;;;;;;4863815;29;20421;-84
2023/08/27 00:54:15;;;;;;;2.37;1.57;;;13.60;99.90;;;;;;4863323;29;20417;-84
2023/08/27 00:56:46;;;;;;;4.13;1.87;;;13.50;99.90;;;;;;4863507;29;20425;-84
2023/08/27 00:59:13;;;;;;;4.63;2.17;;;13.40;99.90;;;;;;4863739;29;20280;-85
2023/08/27 01:01:40;;;;;;;2.40;1.67;;;13.30;99.90;;;;;;4863612;29;20440;-84
2023/08/27 01:04:06;;;;;;;2.00;1.83;;;13.30;99.90;;;;;;4863778;29;20853;-84
2023/08/27 01:06:32;;;;;;;2.20;2.00;;;13.30;99.90;;;;;;4863147;29;21045;-84
2023/08/27 01:09:21;;;;;;;2.23;1.87;;;13.30;99.90;;;;;;4863657;29;20468;-84
2023/08/27 01:11:59;;;;;;;2.73;1.87;;;13.20;99.90;;;;;;4863302;29;20439;-84
2023/08/27 01:14:27;;;;;;;5.73;2.23;;;13.20;99.90;;;;;;4863920;29;20493;-85
2023/08/27 01:16:53;;;;;;;2.10;1.90;;;13.10;99.90;;;;;;4863646;29;20421;-85
2023/08/27 01:19:21;;;;;;;4.63;2.03;;;13.10;99.90;;;;;;4863845;29;20488;-84
2023/08/27 01:21:47;;;;;;;2.60;2.30;;;13.10;99.90;;;;;;4863428;29;20953;-84
2023/08/27 01:24:13;;;;;;;1.70;1.60;;;13.20;99.90;;;;;;4863368;29;20421;-84
2023/08/27 01:26:44;;;;;;;3.40;1.80;;;13.20;99.90;;;;;;4863439;29;20477;-84
2023/08/27 01:29:36;;;;;;;1.67;1.57;;;13.20;99.90;;;;;;4863486;29;20215;-85
2023/08/27 01:32:15;;;;;;;5.10;1.67;;;13.20;99.90;;;;;;4862477;29;20445;-84
2023/08/27 01:34:42;;;;;;;4.10;2.57;;;13.20;99.90;;;;;;4862656;29;20485;-84
2023/08/27 01:37:10;;;;;;;2.00;1.83;;;13.30;99.90;;;;;;4863585;29;20424;-84
2023/08/27 01:39:36;;;;;;;4.17;1.90;;;13.20;99.90;;;;;;4863402;29;20414;-85
2023/08/27 01:42:01;;;;;;;7.77;2.13;;;13.20;99.90;;;;;;4863546;29;20423;-84
2023/08/27 01:44:27;;;;;;;3.60;2.40;;;13.20;99.90;;;;;;4863046;29;20184;-84
2023/08/27 01:46:53;;;;;;;6.53;2.67;;;13.20;99.90;;;;;;4861773;29;20582;-85
2023/08/27 01:49:18;;;;;;;3.10;1.80;;;13.20;99.90;;;;;;4863290;29;20192;-84
2023/08/27 01:51:44;;;;;;;2.67;2.37;;;13.10;99.90;;;;;;4863396;29;20245;-84
2023/08/27 01:54:09;;;;;;;2.23;1.97;;;13.10;99.90;;;;;;4863623;29;20187;-84
2023/08/27 01:56:35;;;;;;;3.10;2.40;;;13.10;99.90;;;;;;4862926;29;20235;-84
2023/08/27 01:59:01;;;;;;;3.93;2.43;;;13.10;99.90;;;;;;4863023;29;20188;-85
2023/08/27 02:01:26;;;;;;;3.17;2.30;;;13.20;99.90;;;;;;4862718;29;20473;-84
2023/08/27 02:03:52;;;;;;;3.83;2.00;;;13.10;99.90;;;;;;4863249;29;20549;-84
2023/08/27 02:06:18;;;;;;;2.07;1.90;;;13.10;99.90;;;;;;4862758;29;20220;-85
2023/08/27 02:08:44;;;;;;;7.83;2.40;;;13.10;99.90;;;;;;4862655;29;20989;-84
2023/08/27 02:11:09;;;;;;;2.90;2.20;;;13.10;99.90;;;;;;4862386;29;20196;-84
2023/08/27 02:13:35;;;;;;;3.13;2.37;;;13.00;99.90;;;;;;4862816;29;20417;-84
2023/08/27 02:16:00;;;;;;;2.50;2.30;;;13.00;99.90;;;;;;4863048;29;20641;-84
2023/08/27 02:18:26;;;;;;;5.10;2.27;;;13.00;99.90;;;;;;4862572;29;20216;-84
2023/08/27 02:20:54;;;;;;;2.90;2.47;;;13.00;99.90;;;;;;4863024;29;20665;-84
2023/08/27 02:23:20;;;;;;;5.27;2.70;;;13.00;99.90;;;;;;4862632;29;20199;-84
2023/08/27 02:25:46;;;;;;;4.27;2.27;;;13.00;99.90;;;;;;4862908;29;20469;-84
2023/08/27 02:28:11;;;;;;;2.40;2.20;;;13.00;99.90;;;;;;4862033;29;20180;-84
2023/08/27 02:30:37;;;;;;;4.20;2.37;;;13.00;99.90;;;;;;4863718;29;20196;-84
2023/08/27 02:33:03;;;;;;;3.67;2.63;;;12.90;99.90;;;;;;4863285;29;20275;-84
2023/08/27 02:35:29;;;;;;;4.83;2.53;;;13.00;99.90;;;;;;4863358;29;20275;-84
2023/08/27 02:37:54;;;;;;;3.60;2.50;;;13.00;99.90;;;;;;4862525;29;20793;-84
2023/08/27 02:40:20;;;;;;;2.40;2.20;;;12.90;99.90;;;;;;4862234;29;20669;-84
2023/08/27 02:42:46;;;;;;;3.03;2.73;;;12.80;99.90;;;;;;4861342;29;20193;-84
2023/08/27 02:45:12;;;;;;;2.40;2.20;;;12.80;99.90;;;;;;4862394;29;20220;-85
2023/08/27 02:47:37;;;;;;;4.87;2.30;;;12.70;99.90;;;;;;4862239;29;20428;-84
2023/08/27 02:50:04;;;;;;;5.10;2.40;;;12.70;99.90;;;;;;4862263;29;20188;-84
2023/08/27 02:52:29;;;;;;;2.70;2.33;;;12.70;99.90;;;;;;4862019;29;20600;-84
2023/08/27 02:54:55;;;;;;;3.40;2.43;;;12.70;99.90;;;;;;4862126;29;20431;-84
2023/08/27 02:57:20;;;;;;;3.67;2.43;;;12.70;99.90;;;;;;4862120;29;20653;-84
2023/08/27 02:59:46;;;;;;;2.47;2.20;;;12.70;99.90;;;;;;4863326;29;20195;-84
2023/08/27 03:02:12;;;;;;;5.90;2.10;;;12.80;99.90;;;;;;4863888;29;20195;-85
2023/08/27 03:04:37;;;;;;;3.10;2.13;;;12.80;99.90;;;;;;4862405;29;20196;-84
2023/08/27 03:07:03;;;;;;;2.30;2.00;;;12.90;99.90;;;;;;4862850;29;20646;-85
2023/08/27 03:09:28;;;;;;;2.20;1.93;;;12.90;99.90;;;;;;4862669;29;20240;-85
2023/08/27 03:11:54;;;;;;;7.93;2.90;;;13.00;99.90;;;;;;4861564;29;20196;-85
2023/08/27 03:14:19;;;;;;;5.87;1.90;;;13.00;99.90;;;;;;4862085;29;20702;-85
2023/08/27 03:16:45;;;;;;;3.70;2.63;;;13.00;99.90;;;;;;4862130;29;20635;-85
2023/08/27 03:19:11;;;;;;;4.30;2.07;;;13.00;99.90;;;;;;4862054;29;20189;-85
2023/08/27 03:21:36;;;;;;;7.37;2.30;;;13.00;99.90;;;;;;4861944;29;20249;-85
2023/08/27 03:24:02;;;;;;;4.67;2.53;;;13.00;99.90;;;;;;4864273;29;20188;-85
2023/08/27 03:26:28;;;;;;;3.10;1.93;;;13.00;99.90;;;;;;4865554;29;20254;-85
2023/08/27 03:28:53;;;;;;;2.50;2.30;;;13.00;99.90;;;;;;4865909;29;20425;-85
2023/08/27 03:31:19;;;;;;;5.93;2.20;;;13.00;99.90;;;;;;4865585;29;20188;-85
2023/08/27 03:33:45;;;;;;;3.13;2.00;;;13.10;99.90;;;;;;4865820;29;20219;-84
2023/08/27 03:36:12;;;;;;;2.77;2.40;;;13.10;99.90;;;;;;4865718;29;20188;-84
2023/08/27 03:38:37;;;;;;;3.30;2.00;;;13.10;99.90;;;;;;4865702;29;20188;-84
2023/08/27 03:41:03;;;;;;;6.30;2.40;;;13.20;99.90;;;;;;4865634;29;20423;-84
2023/08/27 03:43:29;;;;;;;2.83;2.50;;;13.20;99.90;;;;;;4865451;29;20185;-84
2023/08/27 03:45:54;;;;;;;4.50;2.30;;;13.30;99.90;;;;;;4865586;29;20476;-85
2023/08/27 03:48:21;;;;;;;5.07;2.40;;;13.40;99.90;;;;;;4865015;29;20197;-85
2023/08/27 03:50:46;;;;;;;2.50;1.80;;;13.40;99.90;;;;;;4865736;29;20192;-85
2023/08/27 03:53:12;;;;;;;2.80;2.00;;;13.50;99.90;;;;;;4864012;29;20932;-85
2023/08/27 03:55:41;;;;;;;1.77;1.60;;;13.50;99.90;;;;;;4865457;29;20184;-85
2023/08/27 03:58:08;;;;;;;6.03;2.23;;;13.50;99.90;;;;;;4865482;29;20184;-84
2023/08/27 04:00:34;;;;;;;3.53;2.30;;;13.70;99.90;;;;;;4865215;29;20399;-84
2023/08/27 04:03:01;;;;;;;2.43;2.23;;;13.80;99.90;;;;;;4865440;29;20458;-84
2023/08/27 04:05:26;;;;;;;3.10;2.53;;;13.90;99.90;;;;;;4865109;29;20473;-84
2023/08/27 04:07:52;;;;;;;1.93;1.73;;;13.90;99.90;;;;;;4865074;29;20474;-84
2023/08/27 04:10:18;;;;;;;6.70;2.20;;;13.80;99.90;;;;;;4865235;29;20244;-84
2023/08/27 04:12:43;;;;;;;3.70;1.90;;;13.80;99.90;;;;;;4864906;29;20192;-84
2023/08/27 04:15:09;;;;;;;3.80;2.20;;;13.80;99.90;;;;;;4865770;29;20652;-84
2023/08/27 04:17:35;;;;;;;2.50;2.17;;;13.80;99.90;;;;;;4864795;29;20191;-84
2023/08/27 04:20:01;;;;;;;2.37;2.17;;;13.80;99.90;;;;;;4864176;29;20800;-84
2023/08/27 04:22:27;;;;;;;3.07;2.10;;;13.80;99.90;;;;;;4865147;29;20433;-84
2023/08/27 04:24:52;;;;;;;3.13;2.27;;;13.90;99.90;;;;;;4865363;29;20662;-84
2023/08/27 04:27:18;;;;;;;2.13;1.90;;;13.90;99.90;;;;;;4865032;29;20191;-84
2023/08/27 04:29:43;;;;;;;4.60;2.30;;;13.90;99.90;;;;;;4865207;29;20196;-85
2023/08/27 04:32:09;;;;;;;3.63;1.93;;;13.90;99.90;;;;;;4864955;29;20649;-84
2023/08/27 04:34:35;;;;;;;3.47;2.60;;;13.90;99.90;;;;;;4864098;29;20657;-84
2023/08/27 04:37:03;;;;;;;3.80;2.00;;;13.90;99.90;;;;;;4864946;29;20185;-84
2023/08/27 04:39:29;;;;;;;4.80;2.27;;;13.90;99.90;;;;;;4864173;29;20660;-84
2023/08/27 04:41:55;;;;;;;4.60;2.40;;;13.90;99.90;;;;;;4864646;29;20433;-84
2023/08/27 04:44:20;;;;;;;5.53;1.80;;;13.90;99.90;;;;;;4865457;29;20417;-84
2023/08/27 04:46:46;;;;;;;3.30;1.87;;;13.90;99.90;;;;;;4867356;29;20573;-84
2023/08/27 04:49:12;;;;;;;2.83;2.00;;;13.90;99.90;;;;;;4865073;29;20184;-83
2023/08/27 04:51:38;;;;;;;3.10;1.80;;;13.90;99.90;;;;;;4864802;29;20271;-84
2023/08/27 04:54:04;;;;;;;2.33;2.10;;;13.90;99.90;;;;;;4864970;29;20484;-84
2023/08/27 04:56:30;;;;;;;1.90;1.50;;;14.00;99.90;;;;;;4865018;29;20189;-84
2023/08/27 04:58:55;;;;;;;2.40;2.10;;;13.90;99.90;;;;;;4864768;29;20425;-84
2023/08/27 05:01:21;;;;;;;2.03;1.83;;;14.10;99.90;;;;;;4864419;29;20188;-83
2023/08/27 05:03:47;;;;;;;3.27;2.20;;;14.00;99.90;;;;;;4864585;29;20189;-84
2023/08/27 05:06:12;;;;;;;3.77;2.30;;;14.10;99.90;;;;;;4864673;29;20696;-83
2023/08/27 05:08:38;;;;;;;2.40;1.77;;;14.10;99.90;;;;;;4864162;29;20264;-83
2023/08/27 05:11:03;;;;;;;3.20;2.07;;;14.10;99.90;;;;;;4864641;29;20197;-83
2023/08/27 05:13:29;;;;;;;1.90;1.80;;;14.10;99.90;;;;;;4863137;29;20192;-84
2023/08/27 05:15:54;;;;;;;2.53;1.90;;;14.10;99.90;;;;;;4865367;29;20195;-83
2023/08/27 05:18:20;;;;;;;2.17;1.90;;;14.10;99.90;;;;;;4864695;29;20200;-82
2023/08/27 05:20:46;;;;;;;4.90;2.20;;;14.00;99.90;;;;;;4864846;29;20195;-82
2023/08/27 05:23:12;;;;;;;2.23;2.03;;;14.10;99.90;;;;;;4864514;29;20271;-82
2023/08/27 05:25:38;;;;;;;2.37;2.17;;;14.10;99.90;;;;;;4864272;29;20484;-82
2023/08/27 05:28:04;;;;;;;2.70;2.33;;;14.10;99.90;;;;;;4864352;29;20402;-82
2023/08/27 05:30:29;;;;;;;4.00;2.80;;;14.10;99.90;;;;;;4864242;29;20425;-83
2023/08/27 05:32:55;;;;;;;6.30;2.50;;;14.10;99.90;;;;;;4864516;29;20180;-82
2023/08/27 05:35:24;;;;;;;5.00;2.73;;;14.10;99.90;;;;;;4864095;29;20197;-82
2023/08/27 05:37:50;;;;;;;3.13;2.50;;;14.20;99.90;;;;;;4864072;29;20224;-82
2023/08/27 05:40:15;;;;;;;3.43;2.97;;;14.20;99.90;;;;;;4864199;29;20439;-82
2023/08/27 05:42:41;;;;;;;3.33;2.80;;;14.20;99.90;;;;;;4864158;29;20184;-82
2023/08/27 05:45:07;;;;;;;4.03;2.63;;;14.20;99.90;;;;;;4863055;29;20318;-81
2023/08/27 05:47:33;;;;;;;3.60;3.10;;;14.20;99.90;;;;;;4863750;29;20232;-81
2023/08/27 05:49:58;;;;;;;5.20;2.60;;;14.20;99.90;;;;;;4864856;29;20433;-81
2023/08/27 05:52:24;;;;;;;7.90;2.53;;;14.20;99.90;;;;;;4864688;29;20539;-81
2023/08/27 05:54:49;;;;;;;7.20;2.60;;;14.20;99.90;;;;;;4863983;29;20201;-81
2023/08/27 05:57:16;;;;;;;4.23;2.90;;;14.20;99.90;;;;;;4864231;29;20240;-81
2023/08/27 05:59:41;;;;;;;3.50;3.20;;;14.20;99.90;;;;;;4863594;29;20190;-82
2023/08/27 06:02:09;;;;;;;6.73;2.93;;;14.20;99.90;;;;;;4862989;29;20517;-82
2023/08/27 06:04:34;;;;;;;5.33;3.37;;;14.20;99.90;;;;;;4864013;29;20541;-82
2023/08/27 06:07:00;;;;;;;4.57;2.67;;;14.30;99.90;;;;;;4863642;29;20451;-82
2023/08/27 06:09:25;;;;;;;5.03;3.10;;;14.40;99.90;;;;;;4864362;29;20236;-81
2023/08/27 06:11:51;;;;;;;5.50;2.70;;;14.40;99.90;;;;;;4863806;29;20630;-82
2023/08/27 06:14:17;;;;;;;5.00;2.87;;;14.50;99.90;;;;;;4863543;29;20192;-82
2023/08/27 06:16:43;;;;;;;3.03;2.73;;;14.50;99.90;;;;;;4862050;29;20433;-82
2023/08/27 06:19:09;;;;;;;4.20;3.50;;;14.60;99.90;;;;;;4863331;29;20192;-82
2023/08/27 06:21:34;;;;;;;3.33;2.80;;;14.70;99.90;;;;;;4862337;29;20662;-83
2023/08/27 06:24:00;;;;;;;3.40;3.03;;;14.80;99.90;;;;;;4863761;29;20429;-81
2023/08/27 06:26:25;;;;;;;4.10;2.87;;;14.90;99.90;;;;;;4863336;29;20677;-82
2023/08/27 06:28:51;;;;;;;16.43;3.70;;;14.90;99.90;;;;;;4863084;29;20549;-82
2023/08/27 06:31:16;;;;;;;3.27;2.97;;;15.00;99.90;;;;;;4862060;29;20192;-82
2023/08/27 06:33:42;;;;;;;3.27;3.00;;;15.00;99.90;;;;;;4862833;29;20184;-82
2023/08/27 06:36:07;;;;;;;5.47;2.43;;;15.10;99.90;;;;;;4861861;29;20567;-82
2023/08/27 06:38:33;;;;;;;6.10;3.00;;;15.20;99.90;;;;;;4861355;29;20259;-83
2023/08/27 06:40:59;;;;;;;4.00;2.60;;;15.20;99.90;;;;;;4863267;29;20185;-82
2023/08/27 06:43:25;;;;;;;8.70;2.87;;;15.30;99.90;;;;;;4862976;29;20204;-82
2023/08/27 06:45:51;;;;;;;5.30;2.73;;;15.30;99.90;;;;;;4862693;29;20473;-83
2023/08/27 06:48:17;;;;;;;5.27;2.60;;;15.40;99.90;;;;;;4862855;29;20431;-83
2023/08/27 06:50:43;;;;;;;2.87;2.33;;;15.40;99.90;;;;;;4863000;29;20199;-83
2023/08/27 06:53:10;;;;;;;3.00;2.03;;;15.30;99.90;;;;;;4863343;29;20883;-83
2023/08/27 06:55:35;;;;;;;3.87;2.50;;;15.30;99.90;;;;;;4866412;29;20190;-83
2023/08/27 06:58:01;;;;;;;5.63;2.97;;;15.30;99.90;;;;;;4866211;29;20449;-82
2023/08/27 07:00:26;;;;;;;9.07;3.37;;;15.30;99.90;;;;;;4864988;29;20240;-82
2023/08/27 07:02:53;;;;;;;3.40;2.23;;;15.30;99.90;;;;;;4864001;29;20535;-83
2023/08/27 07:05:19;;;;;;;3.53;2.30;;;15.40;99.90;;;;;;4863624;29;20247;-82
2023/08/27 07:07:45;;;;;;;2.30;2.00;;;15.50;99.90;;;;;;4865300;29;21483;-83
2023/08/27 07:10:11;;;;;;;4.03;2.50;;;15.70;99.90;;;;;;4865261;29;20441;-82
2023/08/27 07:12:37;;;;;;;2.97;2.27;;;15.70;99.90;;;;;;4863351;29;20207;-83
2023/08/27 07:15:04;;;;;;;3.17;1.80;;;15.70;99.90;;;;;;4862659;29;20884;-83
2023/08/27 07:17:33;;;;;;;2.03;1.93;;;15.90;99.90;;;;;;4863859;29;20433;-82
2023/08/27 07:20:03;;;;;;;3.93;2.57;;;16.00;99.90;;;;;;4866447;29;20433;-83
2023/08/27 07:22:29;;;;;;;4.00;2.30;;;15.90;99.90;;;;;;4862052;29;20449;-83
2023/08/27 07:24:55;;;;;;;3.43;2.63;;;16.10;99.90;;;;;;4862274;29;20551;-83
2023/08/27 07:27:21;;;;;;;3.37;2.40;;;16.20;99.90;;;;;;4861571;29;20184;-83
2023/08/27 07:29:47;;;;;;;10.70;4.37;;;16.30;99.90;;;;;;4862461;29;20392;-83
2023/08/27 07:32:12;;;;;;;5.40;2.20;;;16.30;99.90;;;;;;4863145;29;20221;-83
2023/08/27 07:34:38;;;;;;;3.17;2.03;;;16.40;99.90;;;;;;4860927;29;20387;-84
2023/08/27 07:37:03;;;;;;;3.53;2.10;;;16.50;99.90;;;;;;4862479;29;20298;-83
2023/08/27 07:39:29;;;;;;;2.30;2.10;;;16.60;99.90;;;;;;4862331;29;20540;-83
2023/08/27 07:41:55;;;;;;;3.90;2.70;;;16.50;99.90;;;;;;4862049;29;20282;-84
2023/08/27 07:44:20;;;;;;;2.90;2.17;;;16.50;99.90;;;;;;4862624;29;20185;-83
2023/08/27 07:46:46;;;;;;;3.50;2.83;;;16.50;99.90;;;;;;4861905;29;20230;-83
2023/08/27 07:49:11;;;;;;;4.07;2.37;;;16.60;99.90;;;;;;4862673;29;20192;-83
2023/08/27 07:51:37;;;;;;;2.90;2.37;;;16.70;99.90;;;;;;4862152;29;20192;-84
2023/08/27 07:54:03;;;;;;;4.30;2.73;;;16.70;99.90;;;;;;4862356;29;20189;-83
2023/08/27 07:56:29;;;;;;;4.67;2.80;;;16.70;99.90;;;;;;4862056;29;20197;-83
2023/08/27 07:58:55;;;;;;;6.33;2.93;;;16.60;99.90;;;;;;4861455;29;20427;-84
2023/08/27 08:01:20;;;;;;;4.07;2.73;;;16.60;99.90;;;;;;4861927;29;20403;-83
2023/08/27 08:03:46;;;;;;;2.87;2.67;;;16.80;99.90;;;;;;4861882;29;20414;-83
2023/08/27 08:06:12;;;;;;;3.23;2.70;;;16.80;99.90;;;;;;4861858;29;20307;-83
2023/08/27 08:08:38;;;;;;;3.70;3.03;;;16.70;99.90;;;;;;4861824;29;20314;-83
2023/08/27 08:11:04;;;;;;;3.77;2.60;;;16.80;99.90;;;;;;4865600;29;20528;-82
2023/08/27 08:13:32;;;;;;;3.10;2.33;;;16.80;99.90;;;;;;4865310;29;20650;-82
2023/08/27 08:15:58;;;;;;;6.60;2.57;;;16.90;99.90;;;;;;4864652;29;20235;-82
2023/08/27 08:18:23;;;;;;;3.50;2.07;;;17.00;99.90;;;;;;4865127;29;20490;-82
2023/08/27 08:20:53;;;;;;;6.50;2.83;;;17.20;99.90;;;;;;4865011;29;20468;-83
2023/08/27 08:23:19;;;;;;;4.40;2.93;;;17.30;99.90;;;;;;4864860;29;20272;-83
2023/08/27 08:25:49;;;;;;;2.93;2.37;;;17.40;99.90;;;;;;4864896;29;20947;-91
2023/08/27 08:28:15;;;;;;;3.90;2.70;;;17.30;99.90;;;;;;4864561;29;20188;-91
2023/08/27 08:31:04;;;;;;;3.57;2.53;;;17.20;99.90;;;;;;4865723;29;20429;-91
2023/08/27 08:33:30;;;;;;;5.03;2.67;;;17.50;99.90;;;;;;4868177;29;20402;-91
2023/08/27 08:36:00;;;;;;;4.10;2.47;;;17.40;99.90;;;;;;4866264;29;20998;-91
2023/08/27 08:38:26;;;;;;;5.23;3.10;;;17.40;99.90;;;;;;4865172;29;20180;-93
2023/08/27 08:40:58;;;;;;;6.20;2.60;;;17.50;99.90;;;;;;4863565;29;20951;-92
2023/08/27 08:43:28;;;;;;;5.90;2.70;;;17.60;99.90;;;;;;4863720;29;20521;-91
2023/08/27 08:46:05;;;;;;;3.57;2.90;;;17.70;99.90;;;;;;4863136;29;20447;-84
2023/08/27 08:48:41;;;;;;;5.70;2.67;;;17.60;99.90;;;;;;4865415;29;20379;-88
2023/08/27 08:51:09;;;;;;;4.03;2.50;;;17.70;99.90;;;;;;4866427;29;20384;-89
2023/08/27 08:53:42;;;;;;;3.83;2.10;;;17.80;99.90;;;;;;4867007;29;20870;-88
2023/08/27 08:56:20;;;;;;;5.43;2.53;;;17.90;99.90;;;;;;4866242;29;20425;-87
2023/08/27 08:58:54;;;;;;;3.47;2.40;;;18.00;99.90;;;;;;4865139;29;20849;-89
2023/08/27 09:01:21;;;;;;;4.50;3.40;;;18.10;99.90;;;;;;4864182;29;20419;-80
2023/08/27 09:03:48;;;;;;;6.00;2.30;;;18.30;99.90;;;;;;4864482;29;20944;-81
2023/08/27 09:06:20;;;;;;;3.80;2.80;;;18.30;99.90;;;;;;4864978;29;20460;-80
2023/08/27 09:08:46;;;;;;;6.10;2.80;;;18.40;99.90;;;;;;4864185;29;20504;-78
2023/08/27 09:11:13;;;;;;;3.27;2.37;;;18.50;99.90;;;;;;4865409;29;20429;-78
2023/08/27 09:13:38;;;;;;;4.63;2.30;;;18.50;99.90;;;;;;4865087;29;20436;-87
2023/08/27 09:16:06;;;;;;;3.10;2.67;;;18.50;99.90;;;;;;4864242;29;20918;-88
2023/08/27 09:18:32;;;;;;;4.17;2.60;;;18.60;99.90;;;;;;4864171;29;20184;-88
2023/08/27 09:20:59;;;;;;;3.10;1.93;;;18.80;99.90;;;;;;4862754;29;20428;-88
2023/08/27 09:23:25;;;;;;;2.70;2.17;;;19.20;99.90;;;;;;4864199;29;20500;-89
2023/08/27 09:25:52;;;;;;;2.70;2.27;;;19.70;99.90;;;;;;4864062;29;20531;-88
2023/08/27 09:28:20;;;;;;;3.20;2.63;;;20.00;99.90;;;;;;4864361;29;20176;-87
2023/08/27 09:30:45;;;;;;;2.73;1.97;;;19.70;99.90;;;;;;4864343;29;20392;-86
2023/08/27 09:33:11;;;;;;;2.50;2.30;;;19.70;99.90;;;;;;4866365;29;20421;-88
2023/08/27 09:35:38;;;;;;;3.00;2.23;;;19.90;99.90;;;;;;4864890;29;20196;-88
2023/08/27 09:38:05;;;;;;;3.23;2.50;;;19.70;99.90;;;;;;4864292;29;20237;-88
2023/08/27 09:40:30;;;;;;;2.77;1.87;;;19.70;99.90;;;;;;4864444;29;20439;-88
2023/08/27 09:43:10;;;;;;;3.70;2.20;;;19.60;99.90;;;;;;4863900;29;20822;-89
2023/08/27 09:45:37;;;;;;;12.77;3.83;;;19.50;99.90;;;;;;4863600;29;20215;-87
2023/08/27 09:48:04;;;;;;;3.50;2.10;;;19.40;99.90;;;;;;4863721;29;20429;-87
2023/08/27 09:50:31;;;;;;;4.23;2.47;;;19.30;99.90;;;;;;4862277;29;20415;-86
2023/08/27 09:53:12;;;;;;;2.47;1.97;;;18.90;99.90;;;;;;4863492;29;20400;-86
2023/08/27 09:55:38;;;;;;;3.77;1.53;;;19.60;99.90;;;;;;4863534;29;20419;-86
2023/08/27 09:58:05;;;;;;;2.03;1.63;;;20.80;99.90;;;;;;4862246;29;20407;-86
2023/08/27 10:00:32;;;;;;;3.50;2.00;;;21.30;99.90;;;;;;4863324;29;20485;-87
2023/08/27 10:02:57;;;;;;;3.63;1.70;;;21.70;99.90;;;;;;4863558;29;20776;-86
2023/08/27 10:05:28;;;;;;;2.30;1.90;;;21.70;99.90;;;;;;4862763;29;20464;-86
2023/08/27 10:07:58;;;;;;;2.70;1.70;;;21.60;99.90;;;;;;4862329;29;20227;-87
2023/08/27 10:10:24;;;;;;;3.50;2.10;;;21.60;99.90;;;;;;4862677;29;20438;-87
2023/08/27 10:12:51;;;;;;;3.07;2.20;;;21.40;99.90;;;;;;4862858;29;20492;-87
2023/08/27 10:15:18;;;;;;;2.33;1.70;;;22.40;99.90;;;;;;4862874;29;20399;-86
2023/08/27 10:17:45;;;;;;;1.93;1.70;;;22.40;99.90;;;;;;4861615;29;20436;-89
2023/08/27 10:20:11;;;;;;;3.50;1.83;;;22.50;99.90;;;;;;4863016;29;20460;-87
2023/08/27 10:22:37;;;;;;;2.00;1.30;;;22.80;99.90;;;;;;4862680;29;20930;-88
2023/08/27 10:25:04;;;;;;;1.50;1.30;;;22.70;99.90;;;;;;4866358;29;20616;-89
2023/08/27 10:27:30;;;;;;;2.40;1.60;;;22.40;99.90;;;;;;4849584;29;20433;-89
2023/08/27 10:29:58;;;;;;;3.20;1.77;;;21.90;99.90;;;;;;4868389;29;20972;-90
2023/08/27 10:32:23;;;;;;;1.60;1.50;;;21.70;99.90;;;;;;4867366;29;20773;-89
2023/08/27 10:34:49;;;;;;;2.83;1.60;;;22.50;99.90;;;;;;4864234;29;20433;-89
2023/08/27 10:37:16;;;;;;;2.37;1.33;;;22.80;99.90;;;;;;4862755;29;20195;-90
2023/08/27 10:39:42;;;;;;;2.70;1.47;;;23.20;99.90;;;;;;4862780;29;20278;-89
2023/08/27 10:42:07;;;;;;;2.47;1.43;;;23.50;99.90;;;;;;4862433;29;20934;-87
2023/08/27 10:44:33;;;;;;;2.27;1.20;;;23.00;99.90;;;;;;4862660;29;20185;-88
2023/08/27 10:47:17;;;;;;;4.00;1.60;;;23.00;99.90;;;;;;4862321;29;20212;-86
2023/08/27 10:49:47;;;;;;;2.10;1.23;;;22.70;99.90;;;;;;4863023;29;20179;-91
2023/08/27 10:52:26;;;;;;;1.77;1.03;;;23.20;99.90;;;;;;4862676;29;20432;-90
2023/08/27 10:55:01;;;;;;;2.03;1.27;;;23.60;99.90;;;;;;4862901;29;20793;-90
2023/08/27 10:57:27;;;;;;;5.30;1.80;;;23.50;99.90;;;;;;4894370;24;20497;-87
2023/08/27 11:00:07;;;;;;;3.53;1.43;;;23.80;99.90;;;;;;4844746;29;20509;-90
2023/08/27 11:03:12;;;;;;;5.50;1.50;;;24.00;99.90;;;;;;4845611;29;20244;-88
2023/08/27 11:05:38;;;;;;;3.17;1.60;;;23.90;99.90;;;;;;4847825;29;20473;-87
2023/08/27 11:08:15;;;;;;;3.33;1.60;;;23.60;99.90;;;;;;4844669;29;20466;-90
2023/08/27 11:10:40;;;;;;;1.30;1.10;;;22.90;99.90;;;;;;4844767;29;20168;-90
2023/08/27 11:13:06;;;;;;;2.17;1.33;;;22.20;99.90;;;;;;4843622;29;20426;-88
2023/08/27 11:15:32;;;;;;;3.43;1.47;;;22.00;99.90;;;;;;4844561;29;20673;-87
2023/08/27 11:17:59;;;;;;;3.00;1.30;;;21.40;99.90;;;;;;4844537;29;20185;-89
2023/08/27 11:20:27;;;;;;;3.33;1.60;;;21.40;99.90;;;;;;4855122;29;20429;-89
2023/08/27 11:23:00;;;;;;;2.47;1.17;;;21.80;99.90;;;;;;4846069;29;20458;-87
2023/08/27 11:25:30;;;;;;;4.90;1.80;;;21.90;99.90;;;;;;4844912;29;20493;-85
2023/08/27 11:27:58;;;;;;;1.87;1.10;;;22.20;99.90;;;;;;4845167;29;20429;-86
2023/08/27 11:30:27;;;;;;;3.30;1.60;;;22.50;99.90;;;;;;4845321;29;20483;-88
2023/08/27 11:32:54;;;;;;;2.73;1.07;;;22.40;99.90;;;;;;4844595;29;20425;-88
2023/08/27 11:35:23;;;;;;;3.50;2.30;;;22.80;99.90;;;;;;4844755;29;20869;-88
2023/08/27 11:37:50;;;;;;;4.87;1.10;;;23.10;99.90;;;;;;4844475;29;20518;-88
2023/08/27 11:40:16;;;;;;;1.50;1.10;;;23.90;99.90;;;;;;4842561;29;20524;-88
2023/08/27 11:42:52;;;;;;;2.90;1.40;;;24.20;99.90;;;;;;4831927;29;20430;-88
2023/08/27 11:45:29;;;;;;;1.43;0.93;;;24.40;99.90;;;;;;4840907;29;20480;-88
2023/08/27 11:47:55;;;;;;;4.00;1.30;;;24.50;99.90;;;;;;4847470;29;20410;-90
2023/08/27 11:50:21;;;;;;;2.87;1.17;;;24.50;99.90;;;;;;4846967;29;20422;-89
2023/08/27 11:52:47;;;;;;;2.80;1.30;;;24.50;99.90;;;;;;4847211;29;20424;-88
2023/08/27 11:55:13;;;;;;;2.90;1.47;;;23.90;99.90;;;;;;4846167;29;20429;-89
2023/08/27 11:57:39;;;;;;;1.70;1.20;;;23.70;99.90;;;;;;4845898;29;20232;-91
2023/08/27 12:00:11;;;;;;;2.43;1.23;;;23.00;99.90;;;;;;4841788;29;20521;-89
2023/08/27 12:02:38;;;;;;;3.07;1.43;;;22.90;99.90;;;;;;4831616;29;20213;-89
2023/08/27 12:05:06;;;;;;;2.67;1.27;;;23.00;99.90;;;;;;4826979;29;20910;-88
2023/08/27 12:07:35;;;;;;;2.43;1.03;;;22.80;99.90;;;;;;4826776;29;20997;-88
2023/08/27 12:10:07;;;;;;;1.60;1.20;;;23.00;99.90;;;;;;4828161;29;20411;-88
2023/08/27 12:12:36;;;;;;;1.73;1.20;;;23.60;99.90;;;;;;4838062;29;20907;-90
2023/08/27 12:15:03;;;;;;;1.80;1.27;;;23.70;99.90;;;;;;4849526;29;20425;-92
2023/08/27 12:17:33;;;;;;;3.40;1.40;;;23.70;99.90;;;;;;4843874;29;20483;-88
2023/08/27 12:19:58;;;;;;;3.50;1.30;;;24.20;99.90;;;;;;4832693;29;20450;-89
2023/08/27 12:22:24;;;;;;;3.60;1.07;;;24.00;99.90;;;;;;4829229;29;20758;-89
2023/08/27 12:24:49;;;;;;;3.03;1.03;;;23.90;99.90;;;;;;4832645;29;20220;-89
2023/08/27 12:27:17;;;;;;;4.87;2.20;;;24.10;99.90;;;;;;4828643;29;20197;-89
2023/08/27 12:29:45;;;;;;;1.50;1.03;;;24.40;99.90;;;;;;4828864;29;20185;-89
2023/08/27 12:32:16;;;;;;;1.27;1.17;;;24.80;99.90;;;;;;4828276;29;20488;-91
2023/08/27 12:34:51;;;;;;;1.73;1.30;;;24.70;99.90;;;;;;4831146;29;20425;-90
2023/08/27 12:37:19;;;;;;;2.07;1.10;;;25.40;99.90;;;;;;4831003;29;20418;-89
2023/08/27 12:39:46;;;;;;;1.90;1.20;;;25.50;99.90;;;;;;4828526;29;20465;-88
2023/08/27 12:42:16;;;;;;;1.50;1.30;;;25.20;99.90;;;;;;4829342;29;20427;-90
2023/08/27 12:44:42;;;;;;;2.73;1.20;;;24.10;99.90;;;;;;4829787;29;20423;-90